Odessa, Florida
Current Conditions -  °F | °C
As of 12:53 PM on Saturday 25 Oct 2014 (Local Time) from KTPA Reporting Station
Clear Clear  
Wind Chill: 76°   Ceiling: Unl
Heat Index: 76°   Visibility: 10mi
Dew Point: 50°   Wind: 0mph
Humidity: 40%   Direction: NA
Pressure: 30"   Gusts: NA
Location:  28.19°N, 82.59°W
Report Text: KTPA 251653Z 00000KT 10SM CLR 24/10 A3000 RMK AO2 SLP160 T02440100
Loading
Personal Weather Stations






























Interactive Weather Map
Tropical Storm Tracking
New forecast layout! Learn more

10-Day Weather Forecast

Advertisements
Track Severe Weather on mobile